Time;durP1;ratioP1;P1;durP2;ratioP2;P2;SDS_P1;SDS_P2;PMS_P1;PMS_P2;Temp;Humidity;BMP_temperature;BMP_pressure;BME280_temperature;BME280_humidity;BME280_pressure;Samples;Min_cycle;Max_cycle;Signal;HPM_P1;HPM_P2
2020/12/23 00:02:26;;;;;;;;;;;;;;;6.72;100.00;100714.13;5075078;28;19938;-73
2020/12/23 00:04:53;;;;;;;;;;;;;;;6.73;100.00;100720.31;5072097;28;19939;-73
2020/12/23 00:07:19;;;;;;;;;;;;;;;6.73;100.00;100718.53;5076606;28;19924;-73
2020/12/23 00:09:46;;;;;;;;;;;;;;;6.73;100.00;100718.53;5074303;28;20569;-73
2020/12/23 00:12:13;;;;;;;;;;;;;;;6.73;100.00;100723.84;5051975;28;19935;-74
2020/12/23 00:14:40;;;;;;;;;;;;;;;6.74;100.00;100722.94;5069843;28;19935;-73
2020/12/23 00:17:07;;;;;;;;;;;;;;;6.74;100.00;100720.28;5087390;28;19935;-73
2020/12/23 00:19:35;;;;;;;;;;;;;;;6.74;100.00;100719.38;5073797;28;19969;-73
2020/12/23 00:22:02;;;;;;;;;;;;;;;6.73;100.00;100721.19;5078057;28;19966;-73
2020/12/23 00:24:29;;;;;;;;;;;;;;;6.74;100.00;100722.94;5076325;28;19932;-73
2020/12/23 00:26:56;;;;;;;;;;;;;;;6.74;100.00;100717.63;5072204;28;19928;-73
2020/12/23 00:29:23;;;;;;;;;;;;;;;6.74;100.00;100714.06;5076114;28;19964;-74
2020/12/23 00:31:51;;;;;;;;;;;;;;;6.73;100.00;100717.66;5074686;28;20385;-73
2020/12/23 00:34:18;;;;;;;;;;;;;;;6.73;100.00;100723.84;5073473;28;19955;-73
2020/12/23 00:36:50;;;;;;;;;;;;;;;6.72;100.00;100722.13;5074632;28;19928;-73
2020/12/23 00:39:17;;;;;;;;;;;;;;;6.70;100.00;100713.31;5074549;28;19949;-73
2020/12/23 00:41:44;;;;;;;;;;;;;;;6.71;100.00;100715.06;5075859;28;19924;-73
2020/12/23 00:44:12;;;;;;;;;;;;;;;6.70;100.00;100710.63;5060580;28;19983;-73
2020/12/23 00:46:39;;;;;;;;;;;;;;;6.70;100.00;100718.63;5081485;28;20381;-74
2020/12/23 00:49:07;;;;;;;;;;;;;;;6.70;100.00;100718.63;5077552;28;19929;-73
2020/12/23 00:51:34;;;;;;;;;;;;;;;6.70;100.00;100721.28;5080187;28;19928;-73
2020/12/23 00:54:03;;;;;;;;;;;;;;;6.71;100.00;100725.72;5078215;28;19940;-73
2020/12/23 00:56:32;;;;;;;;;;;;;;;6.71;100.00;100717.72;5075703;28;20001;-74
2020/12/23 00:58:58;;;;;;;;;;;;;;;6.70;100.00;100721.28;5077880;28;20019;-73
2020/12/23 01:01:25;;;;;;;;;;;;;;;6.71;100.00;100727.50;5080255;28;19928;-73
2020/12/23 01:03:52;;;;;;;;;;;;;;;6.71;100.00;100727.50;5074698;28;19928;-73
2020/12/23 01:06:19;;;;;;;;;;;;;;;6.71;100.00;100731.03;5079598;28;19986;-73
2020/12/23 01:08:46;;;;;;;;;;;;;;;6.71;100.00;100735.47;5078514;28;20729;-73
2020/12/23 01:11:14;;;;;;;;;;;;;;;6.69;100.00;100722.22;5071388;28;20304;-73
2020/12/23 01:13:41;;;;;;;;;;;;;;;6.69;100.00;100732.84;5080120;28;19938;-73
2020/12/23 01:16:08;;;;;;;;;;;;;;;6.69;100.00;100724.00;5060281;28;19960;-74
2020/12/23 01:18:35;;;;;;;;;;;;;;;6.69;100.00;100724.88;5092201;28;19960;-73
2020/12/23 01:21:02;;;;;;;;;;;;;;;6.67;100.00;100718.75;5081740;28;19928;-73
2020/12/23 01:23:29;;;;;;;;;;;;;;;6.67;100.00;100721.41;5075124;28;19958;-74
2020/12/23 01:25:56;;;;;;;;;;;;;;;6.66;100.00;100721.47;5074622;28;19924;-73
2020/12/23 01:28:24;;;;;;;;;;;;;;;6.65;100.00;100725.91;5081548;28;19933;-74
2020/12/23 01:30:51;;;;;;;;;;;;;;;6.62;100.00;100731.34;5082206;28;20028;-73
2020/12/23 01:33:18;;;;;;;;;;;;;;;6.62;100.00;100725.16;5081624;28;19928;-73
2020/12/23 01:35:45;;;;;;;;;;;;;;;6.60;100.00;100730.53;5079431;28;19924;-73
2020/12/23 01:38:12;;;;;;;;;;;;;;;6.59;100.00;100736.75;5076459;28;19959;-73
2020/12/23 01:40:39;;;;;;;;;;;;;;;6.58;100.00;100728.84;5076395;28;20259;-73
2020/12/23 01:43:07;;;;;;;;;;;;;;;6.58;100.00;100729.72;5080303;28;19935;-74
2020/12/23 01:45:35;;;;;;;;;;;;;;;6.57;100.00;100732.44;5080118;28;20118;-73
2020/12/23 01:48:09;;;;;;;;;;;;;;;6.56;100.00;100731.53;5081416;28;19936;-73
2020/12/23 01:50:36;;;;;;;;;;;;;;;6.55;100.00;100735.13;5074022;28;19971;-74
2020/12/23 01:53:03;;;;;;;;;;;;;;;6.55;100.00;100745.78;5072883;28;19935;-73
2020/12/23 01:55:30;;;;;;;;;;;;;;;6.54;100.00;100744.03;5080282;28;19956;-73
2020/12/23 01:57:57;;;;;;;;;;;;;;;6.55;100.00;100743.13;5061403;28;20451;-73
2020/12/23 02:00:24;;;;;;;;;;;;;;;6.52;100.00;100748.53;5068784;28;19956;-73
2020/12/23 02:02:55;;;;;;;;;;;;;;;6.53;100.00;100752.06;5051256;28;19951;-73
2020/12/23 02:05:22;;;;;;;;;;;;;;;6.50;100.00;100751.25;5058371;28;19964;-74
2020/12/23 02:07:49;;;;;;;;;;;;;;;6.51;100.00;100749.47;5066978;28;19944;-73
2020/12/23 02:10:16;;;;;;;;;;;;;;;6.51;100.00;100752.13;5053008;28;19996;-73
2020/12/23 02:12:43;;;;;;;;;;;;;;;6.51;100.00;100744.16;5065021;28;19925;-73
2020/12/23 02:15:11;;;;;;;;;;;;;;;6.51;100.00;100744.16;5049079;28;20346;-73
2020/12/23 02:17:38;;;;;;;;;;;;;;;6.53;100.00;100744.97;5067928;28;19932;-73
2020/12/23 02:20:07;;;;;;;;;;;;;;;6.53;100.00;100744.09;5063183;28;20218;-74
2020/12/23 02:22:35;;;;;;;;;;;;;;;6.53;100.00;100747.63;5050209;28;20004;-73
2020/12/23 02:25:03;;;;;;;;;;;;;;;6.54;100.00;100743.19;5047485;28;19956;-74
2020/12/23 02:27:30;;;;;;;;;;;;;;;6.55;100.00;100748.44;5065366;28;19939;-73
2020/12/23 02:29:57;;;;;;;;;;;;;;;6.55;100.00;100748.44;5063118;28;19963;-74
2020/12/23 02:32:25;;;;;;;;;;;;;;;6.55;100.00;100748.44;5062634;28;19978;-73
2020/12/23 02:34:52;;;;;;;;;;;;;;;6.55;100.00;100750.22;5041252;28;19929;-73
2020/12/23 02:37:19;;;;;;;;;;;;;;;6.55;100.00;100753.75;5064538;28;20166;-73
2020/12/23 02:39:48;;;;;;;;;;;;;;;6.55;100.00;100761.72;5047499;28;20370;-73
2020/12/23 02:42:16;;;;;;;;;;;;;;;6.54;100.00;100760.00;5066055;28;19932;-73
2020/12/23 02:44:43;;;;;;;;;;;;;;;6.54;100.00;100753.81;5065523;28;20001;-73
2020/12/23 02:47:10;;;;;;;;;;;;;;;6.53;100.00;100752.97;5058379;28;19940;-73
2020/12/23 02:49:38;;;;;;;;;;;;;;;6.52;100.00;100756.50;5043658;28;20356;-74
2020/12/23 02:52:05;;;;;;;;;;;;;;;6.51;100.00;100760.09;5064314;28;19925;-74
2020/12/23 02:54:32;;;;;;;;;;;;;;;6.49;100.00;100745.97;5061045;28;19954;-73
2020/12/23 02:57:00;;;;;;;;;;;;;;;6.49;100.00;100748.63;5060205;28;19951;-73
2020/12/23 02:59:27;;;;;;;;;;;;;;;6.48;100.00;100762.88;5071212;28;19959;-73
2020/12/23 03:01:54;;;;;;;;;;;;;;;6.48;100.00;100754.88;5038373;28;19948;-73
2020/12/23 03:04:21;;;;;;;;;;;;;;;6.47;100.00;100755.81;5064605;28;19929;-74
2020/12/23 03:06:47;;;;;;;;;;;;;;;6.46;100.00;100754.09;5061203;28;19970;-74
2020/12/23 03:09:14;;;;;;;;;;;;;;;6.45;100.00;100750.53;5057320;28;19964;-73
2020/12/23 03:11:41;;;;;;;;;;;;;;;6.46;100.00;100756.75;5060650;28;19933;-73
2020/12/23 03:14:09;;;;;;;;;;;;;;;6.47;100.00;100751.38;5059770;28;19935;-73
2020/12/23 03:16:36;;;;;;;;;;;;;;;6.48;100.00;100746.91;5053941;28;19928;-73
2020/12/23 03:19:04;;;;;;;;;;;;;;;6.48;100.00;100746.91;5053803;28;20727;-73
2020/12/23 03:21:31;;;;;;;;;;;;;;;6.50;100.00;100742.41;5073880;28;19934;-73
2020/12/23 03:23:58;;;;;;;;;;;;;;;6.50;100.00;100740.63;5060219;28;20015;-74
2020/12/23 03:26:25;;;;;;;;;;;;;;;6.53;100.00;100742.31;5062000;28;19925;-73
2020/12/23 03:28:52;;;;;;;;;;;;;;;6.52;100.00;100745.88;5066745;28;19955;-73
2020/12/23 03:31:19;;;;;;;;;;;;;;;6.52;100.00;100751.19;5057130;28;20390;-74
2020/12/23 03:33:46;;;;;;;;;;;;;;;6.52;100.00;100748.53;5057467;28;19928;-73
2020/12/23 03:36:13;;;;;;;;;;;;;;;6.52;100.00;100751.19;5055511;28;19978;-73
2020/12/23 03:38:40;;;;;;;;;;;;;;;6.52;100.00;100761.84;5060122;28;19925;-74
2020/12/23 03:41:07;;;;;;;;;;;;;;;6.51;100.00;100754.78;5058550;28;19933;-73
2020/12/23 03:43:34;;;;;;;;;;;;;;;6.50;100.00;100761.91;5055126;28;20012;-73
2020/12/23 03:46:00;;;;;;;;;;;;;;;6.52;100.00;100766.28;5055132;28;19947;-74
2020/12/23 03:48:29;;;;;;;;;;;;;;;6.50;100.00;100763.69;5057315;28;19929;-74
2020/12/23 03:50:56;;;;;;;;;;;;;;;6.49;100.00;100761.94;5058323;28;19972;-74
2020/12/23 03:53:22;;;;;;;;;;;;;;;6.48;100.00;100757.53;5069567;28;19929;-74
2020/12/23 03:55:49;;;;;;;;;;;;;;;6.46;100.00;100751.44;5058549;28;19925;-74
2020/12/23 03:58:17;;;;;;;;;;;;;;;6.46;100.00;100762.06;5047901;28;19925;-74
2020/12/23 04:00:44;;;;;;;;;;;;;;;6.44;100.00;100759.44;5052010;28;19999;-73
2020/12/23 04:03:11;;;;;;;;;;;;;;;6.44;100.00;100759.44;5038544;28;19929;-73
2020/12/23 04:05:42;;;;;;;;;;;;;;;6.43;100.00;100762.16;5057178;28;19959;-74
2020/12/23 04:08:09;;;;;;;;;;;;;;;6.42;100.00;100755.09;5057847;28;19936;-73
2020/12/23 04:10:36;;;;;;;;;;;;;;;6.39;100.00;100750.75;5056135;28;19932;-74
2020/12/23 04:13:03;;;;;;;;;;;;;;;6.39;100.00;100761.41;5048837;28;19935;-74
2020/12/23 04:15:30;;;;;;;;;;;;;;;6.37;100.00;100752.59;5057205;28;20000;-73
2020/12/23 04:17:57;;;;;;;;;;;;;;;6.37;100.00;100771.19;5057158;28;19956;-73
2020/12/23 04:20:23;;;;;;;;;;;;;;;6.36;100.00;100761.50;5056751;28;19928;-73
2020/12/23 04:22:51;;;;;;;;;;;;;;;6.36;100.00;100769.47;5058166;28;19996;-73
2020/12/23 04:25:18;;;;;;;;;;;;;;;6.37;100.00;100775.66;5054153;28;19925;-73
2020/12/23 04:27:45;;;;;;;;;;;;;;;6.36;100.00;100776.59;5054026;28;19929;-73
2020/12/23 04:30:12;;;;;;;;;;;;;;;6.35;100.00;100780.19;5056243;28;20492;-74
2020/12/23 04:32:40;;;;;;;;;;;;;;;6.33;100.00;100780.22;5059860;28;19932;-74
2020/12/23 04:35:07;;;;;;;;;;;;;;;6.34;100.00;100773.09;5040587;28;19929;-77
2020/12/23 04:37:35;;;;;;;;;;;;;;;6.35;100.00;100777.53;5070612;28;19940;-76
2020/12/23 04:40:03;;;;;;;;;;;;;;;6.35;100.00;100770.41;5052801;28;19929;-76
2020/12/23 04:42:31;;;;;;;;;;;;;;;6.34;100.00;100773.09;5055050;28;19932;-76
2020/12/23 04:44:58;;;;;;;;;;;;;;;6.33;100.00;100768.72;5055632;28;19928;-77
2020/12/23 04:47:25;;;;;;;;;;;;;;;6.33;100.00;100768.72;5059104;28;19984;-77
2020/12/23 04:49:53;;;;;;;;;;;;;;;6.33;100.00;100774.03;5064411;28;19929;-74
2020/12/23 04:52:21;;;;;;;;;;;;;;;6.32;100.00;100770.50;5058665;28;19924;-76
2020/12/23 04:54:48;;;;;;;;;;;;;;;6.32;100.00;100767.84;5051917;28;19951;-77
2020/12/23 04:57:17;;;;;;;;;;;;;;;6.32;100.00;100772.28;5054542;28;20305;-76
2020/12/23 04:59:44;;;;;;;;;;;;;;;6.32;100.00;100764.31;5057453;28;20008;-76
2020/12/23 05:02:11;;;;;;;;;;;;;;;6.33;100.00;100769.56;5056389;28;20535;-76
2020/12/23 05:04:39;;;;;;;;;;;;;;;6.36;100.00;100765.94;5054299;28;19929;-77
2020/12/23 05:07:07;;;;;;;;;;;;;;;6.36;100.00;100755.31;5056896;28;19929;-77
2020/12/23 05:09:34;;;;;;;;;;;;;;;6.38;100.00;100766.75;5034846;28;19959;-76
2020/12/23 05:12:01;;;;;;;;;;;;;;;6.41;100.00;100761.34;5060434;28;19967;-77
2020/12/23 05:14:29;;;;;;;;;;;;;;;6.42;100.00;100763.06;5057599;28;19928;-77
2020/12/23 05:16:56;;;;;;;;;;;;;;;6.45;100.00;100758.50;5059635;28;19960;-76
2020/12/23 05:19:23;;;;;;;;;;;;;;;6.48;100.00;100760.22;5053970;28;19951;-77
2020/12/23 05:21:51;;;;;;;;;;;;;;;6.50;100.00;100756.59;5053156;28;19931;-77
2020/12/23 05:24:18;;;;;;;;;;;;;;;6.53;100.00;100763.59;5050065;28;19979;-75
2020/12/23 05:26:46;;;;;;;;;;;;;;;6.53;100.00;100758.28;5067590;28;19929;-76
2020/12/23 05:29:14;;;;;;;;;;;;;;;6.54;100.00;100754.69;5060981;28;19943;-77
2020/12/23 05:31:42;;;;;;;;;;;;;;;6.55;100.00;100761.72;5060086;28;19931;-77
2020/12/23 05:34:09;;;;;;;;;;;;;;;6.56;100.00;100758.16;5060311;28;19932;-75
2020/12/23 05:36:38;;;;;;;;;;;;;;;6.57;100.00;100764.38;5055769;28;19925;-76
2020/12/23 05:39:05;;;;;;;;;;;;;;;6.55;100.00;100777.69;5053048;28;19929;-76
2020/12/23 05:41:32;;;;;;;;;;;;;;;6.58;100.00;100776.72;5044360;28;19933;-77
2020/12/23 05:43:59;;;;;;;;;;;;;;;6.60;100.00;100774.88;5062974;28;19925;-77
2020/12/23 05:46:26;;;;;;;;;;;;;;;6.58;100.00;100772.28;5059142;28;20397;-77
2020/12/23 05:48:54;;;;;;;;;;;;;;;6.58;100.00;100777.59;5059260;28;19925;-77
2020/12/23 05:51:21;;;;;;;;;;;;;;;6.59;100.00;100779.31;5054417;28;19929;-75
2020/12/23 05:53:48;;;;;;;;;;;;;;;6.59;100.00;100784.66;5068916;28;19928;-77
2020/12/23 05:56:15;;;;;;;;;;;;;;;6.59;100.00;100779.31;5067278;28;19977;-77
2020/12/23 05:58:41;;;;;;;;;;;;;;;6.60;100.00;100775.78;5079656;28;19924;-77
2020/12/23 06:01:09;;;;;;;;;;;;;;;6.61;100.00;100774.84;5078546;28;19975;-77
2020/12/23 06:03:43;;;;;;;;;;;;;;;6.61;100.00;100780.16;5077029;28;19990;-77
2020/12/23 06:06:12;;;;;;;;;;;;;;;6.59;100.00;100776.66;5076652;28;19938;-76
2020/12/23 06:08:40;;;;;;;;;;;;;;;6.59;100.00;100784.66;5079901;28;20031;-77
2020/12/23 06:11:27;;;;;;;;;;;;;;;6.60;100.00;100789.06;5081379;28;19929;-76
2020/12/23 06:14:09;;;;;;;;;;;;;;;6.59;100.00;100784.66;5078000;28;19928;-77
2020/12/23 06:16:36;;;;;;;;;;;;;;;6.58;100.00;100796.22;5077639;28;20280;-77
2020/12/23 06:19:04;;;;;;;;;;;;;;;6.58;100.00;100787.38;5071980;28;19928;-74
2020/12/23 06:21:32;;;;;;;;;;;;;;;6.59;100.00;100783.78;5077303;28;19952;-77
2020/12/23 06:24:03;;;;;;;;;;;;;;;6.59;100.00;100782.00;5082711;28;19939;-77
2020/12/23 06:26:32;;;;;;;;;;;;;;;6.60;100.00;100789.06;5079718;28;19971;-77
2020/12/23 06:28:59;;;;;;;;;;;;;;;6.59;100.00;100792.63;5076683;28;19928;-77
2020/12/23 06:31:27;;;;;;;;;;;;;;;6.60;100.00;100797.06;5080494;28;19955;-77
2020/12/23 06:33:55;;;;;;;;;;;;;;;6.58;100.00;100792.69;5073065;28;19987;-77
2020/12/23 06:36:27;;;;;;;;;;;;;;;6.58;100.00;100790.91;5061938;28;19924;-77
2020/12/23 06:39:09;;;;;;;;;;;;;;;6.57;100.00;100789.16;5076983;28;19955;-77
2020/12/23 06:41:37;;;;;;;;;;;;;;;6.57;100.00;100789.16;5078023;28;19932;-77
2020/12/23 06:44:05;;;;;;;;;;;;;;;6.57;100.00;100786.50;5082862;28;20395;-77
2020/12/23 06:47:04;;;;;;;;;;;;;;;6.56;100.00;100794.53;5074969;28;19924;-77
2020/12/23 06:49:34;;;;;;;;;;;;;;;6.57;100.00;100798.94;5071873;28;20054;-77
2020/12/23 06:52:01;;;;;;;;;;;;;;;6.56;100.00;100797.19;5081067;28;20438;-77
2020/12/23 06:54:46;;;;;;;;;;;;;;;6.56;100.00;100798.06;5078349;28;19967;-77
2020/12/23 06:57:45;;;;;;;;;;;;;;;6.55;100.00;100798.97;5069620;28;19995;-76
2020/12/23 07:00:13;;;;;;;;;;;;;;;6.52;100.00;100793.75;5043615;28;19929;-77
2020/12/23 07:02:42;;;;;;;;;;;;;;;6.55;100.00;100798.13;5060816;28;19992;-77
2020/12/23 07:05:09;;;;;;;;;;;;;;;6.57;100.00;100805.13;5061968;28;19953;-76
2020/12/23 07:07:40;;;;;;;;;;;;;;;6.56;100.00;100802.50;5057793;28;19939;-77
2020/12/23 07:10:10;;;;;;;;;;;;;;;6.54;100.00;100807.88;5058713;28;19931;-76
2020/12/23 07:12:42;;;;;;;;;;;;;;;6.56;100.00;100807.81;5053666;28;19928;-77
2020/12/23 07:15:09;;;;;;;;;;;;;;;6.56;100.00;100816.66;5046060;28;19950;-77
2020/12/23 07:17:38;;;;;;;;;;;;;;;6.55;100.00;100825.59;5052438;28;20711;-76
2020/12/23 07:20:05;;;;;;;;;;;;;;;6.57;100.00;100817.56;5038712;28;20023;-77
2020/12/23 07:22:33;;;;;;;;;;;;;;;6.56;100.00;100810.50;5043232;28;19940;-77
2020/12/23 07:25:01;;;;;;;;;;;;;;;6.58;100.00;100808.66;5043225;28;19958;-77
2020/12/23 07:27:28;;;;;;;;;;;;;;;6.56;100.00;100806.03;5022112;28;19928;-75
2020/12/23 07:30:01;;;;;;;;;;;;;;;6.65;100.00;100807.53;5040089;28;19964;-76
2020/12/23 07:32:29;;;;;;;;;;;;;;;6.66;100.00;100810.13;5038959;28;21051;-76
2020/12/23 07:34:59;;;;;;;;;;;;;;;6.69;100.00;100806.50;5024866;28;19933;-77
2020/12/23 07:37:31;;;;;;;;;;;;;;;6.77;100.00;100816.88;5043416;28;19929;-76
2020/12/23 07:39:58;;;;;;;;;;;;;;;6.78;100.00;100822.16;5040621;28;20289;-75
2020/12/23 07:42:25;;;;;;;;;;;;;;;6.79;100.00;100823.03;5046217;28;19933;-76
2020/12/23 07:44:52;;;;;;;;;;;;;;;6.79;100.00;100823.03;5035092;28;19962;-75
2020/12/23 07:47:23;;;;;;;;;;;;;;;6.82;100.00;100828.25;5024384;28;19929;-75
2020/12/23 07:50:00;;;;;;;;;;;;;;;6.68;100.00;100826.94;5041947;28;19928;-76
2020/12/23 07:52:27;;;;;;;;;;;;;;;6.62;100.00;100832.44;5044605;28;19936;-76
2020/12/23 07:54:54;;;;;;;;;;;;;;;6.66;100.00;100822.56;5042629;28;19946;-77
2020/12/23 07:57:30;;;;;;;;;;;;;;;6.68;100.00;100826.94;5041147;28;19937;-77
2020/12/23 08:00:01;;;;;;;;;;;;;;;6.70;100.00;100825.06;5034761;28;20023;-77
2020/12/23 08:02:39;;;;;;;;;;;;;;;6.79;100.00;100823.03;5041812;28;19933;-76
2020/12/23 08:05:08;;;;;;;;;;;;;;;6.88;100.00;100822.69;5022199;28;19932;-77
2020/12/23 08:07:37;;;;;;;;;;;;;;;6.78;100.00;100823.94;5035520;28;20647;-77
2020/12/23 08:10:11;;;;;;;;;;;;;;;6.88;100.00;100828.88;5066519;28;19929;-78
2020/12/23 08:12:39;;;;;;;;;;;;;;;6.95;100.00;100824.22;5039293;28;20039;-77
2020/12/23 08:15:09;;;;;;;;;;;;;;;6.94;100.00;100828.69;5051215;28;20455;-76
2020/12/23 08:17:37;;;;;;;;;;;;;;;6.79;100.00;100828.34;5039504;28;19936;-75
2020/12/23 08:20:08;;;;;;;;;;;;;;;6.82;100.00;100830.91;5038927;28;19933;-77
2020/12/23 08:22:36;;;;;;;;;;;;;;;6.86;100.00;100838.75;5041417;28;20594;-75
2020/12/23 08:25:04;;;;;;;;;;;;;;;6.88;100.00;100839.53;5042162;28;19933;-75
2020/12/23 08:27:31;;;;;;;;;;;;;;;6.86;100.00;100837.88;5036575;28;19930;-74
2020/12/23 08:30:00;;;;;;;;;;;;;;;6.89;100.00;100832.44;5037507;28;19976;-75
2020/12/23 08:32:31;;;;;;;;;;;;;;;6.90;100.00;100834.19;5041281;28;19929;-76
2020/12/23 08:34:59;;;;;;;;;;;;;;;6.93;100.00;100829.63;5035145;28;19939;-78
2020/12/23 08:37:27;;;;;;;;;;;;;;;7.05;100.00;100835.44;5037869;28;19928;-75
2020/12/23 08:39:54;;;;;;;;;;;;;;;7.05;100.00;100830.09;5038067;28;20397;-76
2020/12/23 08:42:22;;;;;;;;;;;;;;;7.10;100.00;100831.66;5038254;28;19940;-75
2020/12/23 08:44:49;;;;;;;;;;;;;;;7.23;100.00;100826.78;5036627;28;19995;-72
2020/12/23 08:47:23;;;;;;;;;;;;;;;7.40;100.00;100836.84;5040715;28;19932;-73
2020/12/23 08:49:52;;;;;;;;;;;;;;;7.48;100.00;100832.09;5038928;28;19936;-78
2020/12/23 08:52:19;;;;;;;;;;;;;;;7.58;100.00;100833.50;5040774;28;19928;-77
2020/12/23 08:54:48;;;;;;;;;;;;;;;7.73;100.00;100837.38;5038490;28;19925;-76
2020/12/23 08:57:17;;;;;;;;;;;;;;;7.82;100.00;100838.81;5037531;28;19940;-74
2020/12/23 08:59:45;;;;;;;;;;;;;;;7.87;100.00;100848.38;5040076;28;20020;-77
2020/12/23 09:02:13;;;;;;;;;;;;;;;7.95;100.00;100850.75;5047867;28;19928;-75
2020/12/23 09:04:40;;;;;;;;;;;;;;;8.08;100.00;100852.03;5057573;28;20011;-77
2020/12/23 09:07:07;;;;;;;;;;;;;;;8.21;100.00;100854.19;5047011;28;19928;-75
2020/12/23 09:09:35;;;;;;;;;;;;;;;8.37;100.00;100839.31;5045009;28;19928;-78
2020/12/23 09:12:04;;;;;;;;;;;;;;;8.52;100.00;100841.41;5043528;28;19929;-75
2020/12/23 09:14:33;;;;;;;;;;;;;;;8.63;100.00;100828.47;5045794;28;19929;-79
2020/12/23 09:17:04;;;;;;;;;;;;;;;8.72;100.00;100818.31;5045912;28;19932;-76
2020/12/23 09:19:51;;;;;;;;;;;;;;;8.84;100.00;100820.50;5045286;28;20039;-78
2020/12/23 09:22:25;;;;;;;;;;;;;;;8.92;100.00;100812.16;5046252;28;20020;-76
2020/12/23 09:24:53;;;;;;;;;;;;;;;9.04;100.00;100814.28;5040269;28;19983;-73
2020/12/23 09:27:25;;;;;;;;;;;;;;;9.06;100.00;100815.94;5042361;28;19928;-74
2020/12/23 09:29:52;;;;;;;;;;;;;;;9.07;100.00;100809.66;5048374;28;19939;-74
2020/12/23 09:32:19;;;;;;;;;;;;;;;9.11;100.00;100819.28;5047636;28;20010;-77
2020/12/23 09:34:57;;;;;;;;;;;;;;;9.19;100.00;100810.91;5043003;28;20028;-77
2020/12/23 09:37:28;;;;;;;;;;;;;;;9.20;100.00;100811.81;5048096;28;19933;-78
2020/12/23 09:39:55;;;;;;;;;;;;;;;9.19;100.00;100813.59;5041417;28;20333;-78
2020/12/23 09:42:23;;;;;;;;;;;;;;;9.24;100.00;100811.59;5048564;28;19933;-73
2020/12/23 09:44:50;;;;;;;;;;;;;;;9.35;100.00;100814.66;5046989;28;19932;-74
2020/12/23 09:47:17;;;;;;;;;;;;;;;9.49;100.00;100818.53;5045316;28;20550;-74
2020/12/23 09:49:44;;;;;;;;;;;;;;;9.53;100.00;100809.44;5041779;28;19932;-73
2020/12/23 09:52:11;;;;;;;;;;;;;;;9.59;100.00;100812.69;5027193;28;19968;-74
2020/12/23 09:54:38;;;;;;;;;;;;;;;9.86;100.00;100806.97;5039613;28;19928;-73
2020/12/23 09:57:05;;;;;;;;;;;;;;;10.07;100.00;100805.09;5048738;28;19936;-75
2020/12/23 09:59:33;;;;;;;;;;;;;;;9.94;100.00;100806.63;5044382;28;20007;-73
2020/12/23 10:02:00;;;;;;;;;;;;;;;10.90;100.00;100791.16;5044141;28;19928;-75
2020/12/23 10:04:27;;;;;;;;;;;;;;;11.69;100.00;100793.22;5039879;28;20055;-74
2020/12/23 10:06:53;;;;;;;;;;;;;;;11.84;100.00;100789.72;5053524;28;21211;-76
2020/12/23 10:09:38;;;;;;;;;;;;;;;11.38;100.00;100796.69;5053605;28;19996;-74
2020/12/23 10:12:05;;;;;;;;;;;;;;;11.24;100.00;100800.09;5040511;28;19933;-72
2020/12/23 10:14:34;;;;;;;;;;;;;;;11.31;100.00;100791.66;5042411;28;20028;-71
2020/12/23 10:17:00;;;;;;;;;;;;;;;11.98;100.00;100794.31;5042496;28;19953;-71
2020/12/23 10:19:28;;;;;;;;;;;;;;;11.57;100.00;100796.56;5052780;28;20637;-74
2020/12/23 10:21:57;;;;;;;;;;;;;;;11.45;100.00;100798.94;5060942;28;19971;-74
2020/12/23 10:24:24;;;;;;;;;;;;;;;11.00;100.00;100800.47;5053991;28;19932;-74
2020/12/23 10:26:52;;;;;;;;;;;;;;;10.91;100.00;100800.91;5062636;28;19960;-74
2020/12/23 10:29:19;;;;;;;;;;;;;;;10.71;100.00;100796.59;5059997;28;20019;-74
2020/12/23 10:31:47;;;;;;;;;;;;;;;10.61;100.00;100789.97;5060967;28;19955;-74
2020/12/23 10:34:14;;;;;;;;;;;;;;;10.75;100.00;100798.16;5063169;28;19972;-74
2020/12/23 10:36:41;;;;;;;;;;;;;;;10.65;100.00;100799.56;5057488;28;19996;-74
2020/12/23 10:39:08;;;;;;;;;;;;;;;10.33;100.00;100809.22;5056895;28;19928;-74
2020/12/23 10:41:35;;;;;;;;;;;;;;;10.18;100.00;100802.78;5065129;28;19929;-74
2020/12/23 10:44:02;;;;;;;;;;;;;;;10.25;100.00;100820.28;5063499;28;19928;-77
2020/12/23 10:46:29;;;;;;;;;;;;;;;10.18;100.00;100812.63;5055664;28;19935;-76
2020/12/23 10:48:56;;;;;;;;;;;;;;;10.10;100.00;100811.16;5057552;28;19925;-74
2020/12/23 10:51:23;;;;;;;;;;;;;;;10.46;100.00;100807.69;5054047;28;19928;-77
2020/12/23 10:53:50;;;;;;;;;;;;;;;10.61;100.00;100806.03;5061806;28;19932;-76
2020/12/23 10:56:17;;;;;;;;;;;;;;;10.71;100.00;100809.09;5064537;28;19939;-78
2020/12/23 10:58:44;;;;;;;;;;;;;;;10.98;100.00;100814.88;5056853;28;19932;-75
2020/12/23 11:01:11;;;;;;;;;;;;;;;10.73;100.00;100817.94;5059450;28;19928;-76
2020/12/23 11:03:38;;;;;;;;;;;;;;;10.74;100.00;100807.13;5038231;28;19964;-76
2020/12/23 11:06:06;;;;;;;;;;;;;;;10.82;100.00;100804.09;5055129;28;19964;-76
2020/12/23 11:08:33;;;;;;;;;;;;;;;10.76;100.00;100804.38;5057313;28;19933;-78
2020/12/23 11:11:01;;;;;;;;;;;;;;;10.81;100.00;100799.66;5056550;28;19925;-77
2020/12/23 11:13:27;;;;;;;;;;;;;;;10.55;100.00;100801.84;5059503;28;19924;-75
2020/12/23 11:15:54;;;;;;;;;;;;;;;10.38;100.00;100798.28;5057189;28;19939;-76
2020/12/23 11:18:21;;;;;;;;;;;;;;;10.38;100.00;100791.09;5030823;28;19924;-76
2020/12/23 11:20:48;;;;;;;;;;;;;;;10.41;100.00;100785.59;5053057;28;19954;-76
2020/12/23 11:23:24;;;;;;;;;;;;;;;10.33;100.00;100796.69;5071033;28;19925;-75
2020/12/23 11:25:51;;;;;;;;;;;;;;;10.32;100.00;100794.97;5057547;28;19928;-77
2020/12/23 11:28:18;;;;;;;;;;;;;;;10.33;100.00;100791.34;5057089;28;19929;-75
2020/12/23 11:30:45;;;;;;;;;;;;;;;10.34;100.00;100787.72;5070384;28;19993;-75
2020/12/23 11:33:12;;;;;;;;;;;;;;;10.39;100.00;100776.81;5054459;28;19929;-74
2020/12/23 11:35:40;;;;;;;;;;;;;;;10.43;100.00;100783.72;5064902;28;19979;-77
2020/12/23 11:38:06;;;;;;;;;;;;;;;10.41;100.00;100788.28;5040984;28;20436;-75
2020/12/23 11:40:34;;;;;;;;;;;;;;;10.39;100.00;100783.97;5056162;28;19935;-76
2020/12/23 11:43:01;;;;;;;;;;;;;;;10.36;100.00;100782.31;5069470;28;19932;-76
2020/12/23 11:45:28;;;;;;;;;;;;;;;10.36;100.00;100786.78;5056777;28;19958;-74
2020/12/23 11:47:55;;;;;;;;;;;;;;;10.31;100.00;100787.88;5053511;28;19928;-74
2020/12/23 11:50:22;;;;;;;;;;;;;;;10.24;100.00;100788.22;5044005;28;19952;-74
2020/12/23 11:52:49;;;;;;;;;;;;;;;10.25;100.00;100784.59;5043866;28;19933;-73
2020/12/23 11:55:18;;;;;;;;;;;;;;;10.18;100.00;100785.84;5051745;28;19936;-74
2020/12/23 11:57:48;;;;;;;;;;;;;;;10.13;100.00;100783.38;5055760;28;19948;-74
2020/12/23 12:00:15;;;;;;;;;;;;;;;10.03;100.00;100779.44;5052483;28;19936;-72
2020/12/23 12:02:42;;;;;;;;;;;;;;;10.12;100.00;100776.31;5049075;28;19928;-72
2020/12/23 12:05:10;;;;;;;;;;;;;;;10.19;100.00;100771.53;5029111;28;20212;-72
2020/12/23 12:07:37;;;;;;;;;;;;;;;10.20;100.00;100767.91;5054882;28;19964;-72
2020/12/23 12:10:05;;;;;;;;;;;;;;;10.19;100.00;100767.03;5038008;28;20382;-73
2020/12/23 12:12:32;;;;;;;;;;;;;;;10.16;100.00;100767.19;5047777;28;20451;-74
2020/12/23 12:14:59;;;;;;;;;;;;;;;10.15;100.00;100772.63;5045047;28;19928;-74
2020/12/23 12:17:27;;;;;;;;;;;;;;;10.11;100.00;100774.56;5049837;28;19928;-74
2020/12/23 12:19:53;;;;;;;;;;;;;;;10.10;100.00;100779.06;5048142;28;20397;-75
2020/12/23 12:22:20;;;;;;;;;;;;;;;10.19;100.00;100780.41;5045313;28;19925;-74
2020/12/23 12:24:47;;;;;;;;;;;;;;;10.28;100.00;100787.19;5046363;28;19941;-73
2020/12/23 12:27:14;;;;;;;;;;;;;;;10.39;100.00;100783.97;5049601;28;19932;-73
2020/12/23 12:29:41;;;;;;;;;;;;;;;10.38;100.00;100766.16;5048726;28;19963;-74
2020/12/23 12:32:09;;;;;;;;;;;;;;;10.36;100.00;100771.59;5048759;28;19932;-74
2020/12/23 12:34:36;;;;;;;;;;;;;;;10.31;100.00;100762.91;5051839;28;20075;-74
2020/12/23 12:37:03;;;;;;;;;;;;;;;10.36;100.00;100763.56;5058552;28;19960;-74
2020/12/23 12:39:30;;;;;;;;;;;;;;;10.38;100.00;100768.81;5058635;28;19994;-74
2020/12/23 12:41:59;;;;;;;;;;;;;;;10.35;100.00;100777.91;5061277;28;19984;-72